Time;durP1;ratioP1;P1;durP2;ratioP2;P2;SDS_P1;SDS_P2;PMS_P1;PMS_P2;Temp;Humidity;BMP_temperature;BMP_pressure;BME280_temperature;BME280_humidity;BME280_pressure;Samples;Min_cycle;Max_cycle;Signal;HPM_P1;HPM_P2
2023/05/02 00:00:20;;;;;;;5.80;1.50;;;;;;;;;;5063612;27;89753;-49
2023/05/02 00:02:48;;;;;;;1.73;1.57;;;;;;;;;;5064441;27;86963;-48
2023/05/02 00:05:16;;;;;;;3.27;1.93;;;;;;;;;;5064252;27;86934;-49
2023/05/02 00:07:45;;;;;;;3.37;1.37;;;;;;;;;;5064066;27;89413;-49
2023/05/02 00:10:13;;;;;;;1.97;1.70;;;;;;;;;;5064451;27;87163;-49
2023/05/02 00:12:41;;;;;;;2.33;2.13;;;;;;;;;;5064192;27;87582;-49
2023/05/02 00:15:10;;;;;;;2.30;1.70;;;;;;;;;;5064951;27;86196;-50
2023/05/02 00:17:42;;;;;;;1.57;1.33;;;;;;;;;;5063851;27;89067;-48
2023/05/02 00:20:11;;;;;;;2.40;1.73;;;;;;;;;;5064433;27;87713;-48
2023/05/02 00:22:39;;;;;;;2.40;1.03;;;;;;;;;;5064596;27;87925;-48
2023/05/02 00:25:08;;;;;;;1.97;1.60;;;;;;;;;;5064237;27;87011;-48
2023/05/02 00:27:37;;;;;;;3.10;1.50;;;;;;;;;;5063825;27;88021;-49
2023/05/02 00:30:06;;;;;;;3.27;1.70;;;;;;;;;;5063513;27;88568;-48
2023/05/02 00:32:34;;;;;;;2.23;1.70;;;;;;;;;;5063676;27;87335;-49
2023/05/02 00:35:04;;;;;;;1.67;1.57;;;;;;;;;;5062721;27;86947;-48
2023/05/02 00:37:32;;;;;;;1.53;1.17;;;;;;;;;;5062730;27;87336;-48
2023/05/02 00:40:00;;;;;;;2.03;1.60;;;;;;;;;;5064160;27;86407;-50
2023/05/02 00:42:30;;;;;;;1.73;1.43;;;;;;;;;;5063577;27;87027;-48
2023/05/02 00:44:58;;;;;;;1.40;1.17;;;;;;;;;;5063714;27;87052;-48
2023/05/02 00:47:27;;;;;;;3.17;1.73;;;;;;;;;;5062863;27;87995;-48
2023/05/02 00:49:55;;;;;;;1.00;0.93;;;;;;;;;;5061876;27;90279;-50
2023/05/02 00:52:25;;;;;;;1.37;1.27;;;;;;;;;;5061889;27;87155;-48
2023/05/02 00:54:53;;;;;;;2.30;1.80;;;;;;;;;;5063620;27;86940;-49
2023/05/02 00:57:21;;;;;;;1.73;0.93;;;;;;;;;;5063043;27;89201;-48
2023/05/02 00:59:50;;;;;;;2.83;1.20;;;;;;;;;;5048148;27;88729;-48
2023/05/02 01:02:23;;;;;;;1.67;1.00;;;;;;;;;;5063812;27;86985;-48
2023/05/02 01:04:54;;;;;;;1.70;1.07;;;;;;;;;;5063575;27;86279;-48
2023/05/02 01:07:27;;;;;;;1.07;0.97;;;;;;;;;;5062840;27;87940;-48
2023/05/02 01:09:58;;;;;;;1.47;1.27;;;;;;;;;;5063297;27;87862;-48
2023/05/02 01:12:28;;;;;;;1.40;1.03;;;;;;;;;;5062751;27;87918;-48
2023/05/02 01:14:56;;;;;;;1.20;1.10;;;;;;;;;;5063344;27;87216;-50
2023/05/02 01:17:26;;;;;;;1.33;1.17;;;;;;;;;;5061562;27;89090;-49
2023/05/02 01:19:56;;;;;;;1.40;1.30;;;;;;;;;;5063558;27;87851;-48
2023/05/02 01:22:26;;;;;;;0.90;0.90;;;;;;;;;;5062866;27;87031;-48
2023/05/02 01:24:55;;;;;;;1.37;1.07;;;;;;;;;;5062142;27;87081;-48
2023/05/02 01:27:25;;;;;;;1.80;1.27;;;;;;;;;;5062792;27;89162;-49
2023/05/02 01:29:55;;;;;;;1.27;1.00;;;;;;;;;;5062816;27;87719;-48
2023/05/02 01:32:23;;;;;;;1.37;1.10;;;;;;;;;;5062906;27;86885;-49
2023/05/02 01:34:51;;;;;;;1.30;1.20;;;;;;;;;;5063375;27;87065;-48
2023/05/02 01:37:20;;;;;;;1.50;1.40;;;;;;;;;;5061842;27;90016;-48
2023/05/02 01:39:48;;;;;;;1.27;1.00;;;;;;;;;;5062810;27;88767;-48
2023/05/02 01:42:16;;;;;;;0.70;0.70;;;;;;;;;;5062255;27;87040;-48
2023/05/02 01:44:45;;;;;;;1.03;1.03;;;;;;;;;;5063560;27;86950;-49
2023/05/02 01:47:14;;;;;;;1.90;1.13;;;;;;;;;;5062974;27;89188;-48
2023/05/02 01:49:43;;;;;;;1.47;1.03;;;;;;;;;;5061958;27;88722;-49
2023/05/02 01:52:12;;;;;;;1.30;1.00;;;;;;;;;;5062284;27;86985;-48
2023/05/02 01:54:41;;;;;;;0.80;0.80;;;;;;;;;;5063557;27;86299;-50
2023/05/02 01:57:09;;;;;;;1.57;0.80;;;;;;;;;;5060928;27;89068;-48
2023/05/02 01:59:38;;;;;;;1.63;0.90;;;;;;;;;;5062001;27;88921;-48
2023/05/02 02:02:06;;;;;;;1.07;0.93;;;;;;;;;;5061865;27;88376;-48
2023/05/02 02:04:36;;;;;;;0.70;0.70;;;;;;;;;;5062584;27;86998;-48
2023/05/02 02:07:06;;;;;;;2.00;1.03;;;;;;;;;;5061942;27;89033;-48
2023/05/02 02:09:35;;;;;;;1.50;1.10;;;;;;;;;;5062263;27;87931;-48
2023/05/02 02:12:04;;;;;;;1.03;0.53;;;;;;;;;;5062501;27;87104;-48
2023/05/02 02:14:34;;;;;;;0.73;0.43;;;;;;;;;;5062459;27;87041;-48
2023/05/02 02:17:03;;;;;;;1.77;0.80;;;;;;;;;;5061497;27;89147;-49
2023/05/02 02:19:31;;;;;;;1.13;0.90;;;;;;;;;;5062652;27;87962;-48
2023/05/02 02:22:01;;;;;;;1.13;1.03;;;;;;;;;;5062573;27;86905;-48
2023/05/02 02:24:29;;;;;;;2.30;1.33;;;;;;;;;;5062922;27;87133;-48
2023/05/02 02:26:58;;;;;;;3.50;1.10;;;;;;;;;;5061618;27;89745;-50
2023/05/02 02:29:26;;;;;;;0.83;0.80;;;;;;;;;;5062600;27;89736;-48
2023/05/02 02:31:54;;;;;;;1.47;0.60;;;;;;;;;;5062202;27;87008;-49
2023/05/02 02:34:23;;;;;;;2.93;1.20;;;;;;;;;;5062595;27;86865;-48
2023/05/02 02:36:53;;;;;;;1.03;0.80;;;;;;;;;;5060511;27;87942;-48
2023/05/02 02:39:26;;;;;;;0.70;0.70;;;;;;;;;;5062707;27;87052;-48
2023/05/02 02:41:56;;;;;;;0.67;0.67;;;;;;;;;;5062734;27;86994;-48
2023/05/02 02:44:27;;;;;;;0.80;0.80;;;;;;;;;;5042336;27;86246;-49
2023/05/02 02:47:01;;;;;;;0.70;0.60;;;;;;;;;;5056173;27;88131;-49
2023/05/02 02:49:32;;;;;;;4.10;1.17;;;;;;;;;;5060792;27;88763;-48
2023/05/02 02:52:03;;;;;;;0.60;0.60;;;;;;;;;;5060403;27;87946;-48
2023/05/02 02:54:34;;;;;;;1.30;1.13;;;;;;;;;;5061917;27;87028;-48
2023/05/02 02:57:05;;;;;;;1.43;0.60;;;;;;;;;;5062048;27;89255;-48
2023/05/02 02:59:34;;;;;;;0.70;0.70;;;;;;;;;;5061500;27;88981;-48
2023/05/02 03:02:04;;;;;;;0.77;0.77;;;;;;;;;;5061094;27;87184;-48
2023/05/02 03:04:33;;;;;;;2.23;0.70;;;;;;;;;;5061589;27;86967;-48
2023/05/02 03:07:01;;;;;;;0.70;0.70;;;;;;;;;;5060803;27;87905;-48
2023/05/02 03:09:42;;;;;;;1.87;0.87;;;;;;;;;;5061702;27;87756;-49
2023/05/02 03:12:10;;;;;;;0.70;0.70;;;;;;;;;;5055257;27;87060;-48
2023/05/02 03:14:38;;;;;;;0.53;0.53;;;;;;;;;;5061844;27;87379;-48
2023/05/02 03:17:07;;;;;;;1.53;0.70;;;;;;;;;;5060911;27;89949;-48
2023/05/02 03:19:36;;;;;;;0.60;0.60;;;;;;;;;;5060624;27;88835;-49
2023/05/02 03:22:04;;;;;;;0.73;0.53;;;;;;;;;;5061251;27;86981;-48
2023/05/02 03:24:32;;;;;;;1.90;0.90;;;;;;;;;;5060928;27;87084;-48
2023/05/02 03:27:02;;;;;;;0.97;0.60;;;;;;;;;;5061223;27;89065;-49
2023/05/02 03:29:30;;;;;;;0.60;0.60;;;;;;;;;;5060953;27;87628;-47
2023/05/02 03:31:59;;;;;;;0.57;0.57;;;;;;;;;;5061995;27;87191;-48
2023/05/02 03:34:27;;;;;;;0.73;0.73;;;;;;;;;;5061901;27;86141;-48
2023/05/02 03:36:55;;;;;;;1.57;0.40;;;;;;;;;;5060506;27;89137;-48
2023/05/02 03:39:24;;;;;;;0.40;0.40;;;;;;;;;;5061255;27;87795;-48
2023/05/02 03:41:52;;;;;;;0.67;0.60;;;;;;;;;;5061073;27;87953;-48
2023/05/02 03:44:22;;;;;;;2.10;0.57;;;;;;;;;;5061368;27;87079;-48
2023/05/02 03:46:50;;;;;;;0.83;0.70;;;;;;;;;;5062273;27;87947;-48
2023/05/02 03:49:19;;;;;;;1.20;0.50;;;;;;;;;;5064642;27;88916;-48
2023/05/02 03:51:47;;;;;;;0.70;0.60;;;;;;;;;;5064498;27;87036;-48
2023/05/02 03:54:16;;;;;;;1.60;0.50;;;;;;;;;;5064510;27;86922;-48
2023/05/02 03:56:45;;;;;;;1.00;0.60;;;;;;;;;;5065140;27;87932;-48
2023/05/02 03:59:14;;;;;;;1.67;0.60;;;;;;;;;;5065109;27;89133;-48
2023/05/02 04:01:44;;;;;;;0.63;0.63;;;;;;;;;;5060220;27;86992;-48
2023/05/02 04:04:12;;;;;;;0.93;0.50;;;;;;;;;;5064675;27;87002;-48
2023/05/02 04:06:41;;;;;;;0.57;0.40;;;;;;;;;;5059449;27;90208;-48
2023/05/02 04:09:09;;;;;;;1.10;0.80;;;;;;;;;;5063261;27;89742;-48
2023/05/02 04:11:38;;;;;;;1.53;0.77;;;;;;;;;;5064874;27;86880;-48
2023/05/02 04:14:06;;;;;;;0.40;0.40;;;;;;;;;;5064531;27;86978;-48
2023/05/02 04:16:34;;;;;;;0.50;0.50;;;;;;;;;;5063629;27;89090;-49
2023/05/02 04:19:04;;;;;;;0.97;0.87;;;;;;;;;;5063372;27;88971;-48
2023/05/02 04:21:32;;;;;;;0.47;0.47;;;;;;;;;;5064258;27;88451;-49
2023/05/02 04:24:01;;;;;;;1.10;0.60;;;;;;;;;;5064359;27;87553;-48
2023/05/02 04:26:29;;;;;;;0.40;0.40;;;;;;;;;;5064013;27;88994;-48
2023/05/02 04:28:57;;;;;;;0.37;0.37;;;;;;;;;;5063719;27;89153;-48
2023/05/02 04:31:26;;;;;;;0.30;0.30;;;;;;;;;;5062899;27;87974;-48
2023/05/02 04:33:54;;;;;;;0.30;0.30;;;;;;;;;;5062605;27;87638;-48
2023/05/02 04:36:24;;;;;;;0.30;0.30;;;;;;;;;;5063357;27;89144;-48
2023/05/02 04:38:53;;;;;;;0.87;0.53;;;;;;;;;;5063372;27;88135;-48
2023/05/02 04:41:22;;;;;;;0.47;0.43;;;;;;;;;;5064247;27;87062;-48
2023/05/02 04:43:50;;;;;;;0.83;0.63;;;;;;;;;;5063487;27;87003;-48
2023/05/02 04:46:18;;;;;;;0.70;0.70;;;;;;;;;;5063639;27;89072;-48
2023/05/02 04:48:47;;;;;;;1.27;0.60;;;;;;;;;;5063505;27;87864;-50
2023/05/02 04:51:15;;;;;;;0.57;0.57;;;;;;;;;;5063616;27;87009;-48
2023/05/02 04:53:45;;;;;;;0.50;0.50;;;;;;;;;;5063388;27;86934;-48
2023/05/02 04:56:14;;;;;;;0.93;0.60;;;;;;;;;;5053394;27;88848;-48
2023/05/02 04:58:42;;;;;;;1.80;0.70;;;;;;;;;;5062095;27;88713;-48
2023/05/02 05:01:10;;;;;;;0.77;0.70;;;;;;;;;;5063149;27;87118;-48
2023/05/02 05:03:39;;;;;;;0.57;0.50;;;;;;;;;;5063485;27;87423;-48
2023/05/02 05:06:07;;;;;;;0.27;0.27;;;;;;;;;;5062375;27;89035;-48
2023/05/02 05:08:35;;;;;;;0.30;0.30;;;;;;;;;;5063082;27;87034;-48
2023/05/02 05:11:05;;;;;;;1.93;0.40;;;;;;;;;;5063175;27;87126;-49
2023/05/02 05:13:33;;;;;;;0.53;0.53;;;;;;;;;;5064394;27;86228;-48
2023/05/02 05:16:02;;;;;;;2.13;0.60;;;;;;;;;;5062318;27;89205;-49
2023/05/02 05:18:31;;;;;;;1.97;0.70;;;;;;;;;;5062976;27;87739;-48
2023/05/02 05:20:59;;;;;;;0.40;0.40;;;;;;;;;;5061426;27;87994;-48
2023/05/02 05:23:28;;;;;;;0.30;0.30;;;;;;;;;;5063676;27;86995;-49
2023/05/02 05:25:56;;;;;;;0.40;0.40;;;;;;;;;;5061743;27;89252;-47
2023/05/02 05:28:26;;;;;;;0.83;0.40;;;;;;;;;;5062410;27;87827;-47
2023/05/02 05:30:56;;;;;;;2.50;0.60;;;;;;;;;;5063487;27;86969;-47
2023/05/02 05:33:24;;;;;;;0.87;0.50;;;;;;;;;;5062141;27;86910;-47
2023/05/02 05:35:53;;;;;;;1.53;0.30;;;;;;;;;;5062944;27;88267;-48
2023/05/02 05:38:21;;;;;;;1.03;0.40;;;;;;;;;;5063628;27;88954;-48
2023/05/02 05:40:50;;;;;;;0.50;0.50;;;;;;;;;;5062334;27;87049;-48
2023/05/02 05:43:18;;;;;;;0.50;0.40;;;;;;;;;;5060733;27;87122;-47
2023/05/02 05:45:48;;;;;;;0.40;0.40;;;;;;;;;;5060762;27;88941;-47
2023/05/02 05:48:16;;;;;;;2.20;0.50;;;;;;;;;;5061657;27;89854;-48
2023/05/02 05:50:45;;;;;;;0.77;0.53;;;;;;;;;;5062426;27;87058;-47
2023/05/02 05:53:13;;;;;;;0.40;0.40;;;;;;;;;;5062717;27;87026;-48
2023/05/02 05:55:41;;;;;;;0.40;0.40;;;;;;;;;;5061926;27;88112;-47
2023/05/02 05:58:10;;;;;;;0.40;0.40;;;;;;;;;;5062628;27;88018;-48
2023/05/02 06:00:39;;;;;;;0.53;0.50;;;;;;;;;;5060955;27;87126;-48
2023/05/02 06:03:08;;;;;;;0.30;0.30;;;;;;;;;;5062978;27;86406;-48
2023/05/02 06:05:37;;;;;;;0.93;0.90;;;;;;;;;;5061884;27;88956;-48
2023/05/02 06:08:05;;;;;;;0.50;0.50;;;;;;;;;;5062181;27;88870;-49
2023/05/02 06:10:34;;;;;;;0.73;0.73;;;;;;;;;;5061055;27;88035;-50
2023/05/02 06:13:02;;;;;;;0.40;0.40;;;;;;;;;;5061967;27;87026;-48
2023/05/02 06:15:30;;;;;;;0.43;0.43;;;;;;;;;;5061998;27;88146;-49
2023/05/02 06:17:59;;;;;;;1.90;0.30;;;;;;;;;;5061927;27;88908;-48
2023/05/02 06:20:29;;;;;;;0.83;0.73;;;;;;;;;;5058900;27;87010;-51
2023/05/02 06:22:57;;;;;;;1.70;0.57;;;;;;;;;;5054893;27;88821;-51
2023/05/02 06:25:25;;;;;;;0.80;0.50;;;;;;;;;;5050288;27;88017;-51
2023/05/02 06:27:54;;;;;;;0.20;0.20;;;;;;;;;;5061638;27;87842;-52
2023/05/02 06:30:22;;;;;;;3.90;0.80;;;;;;;;;;5047184;27;87927;-52
2023/05/02 06:32:50;;;;;;;0.87;0.40;;;;;;;;;;5060948;27;87058;-51
2023/05/02 06:35:19;;;;;;;0.30;0.30;;;;;;;;;;5062244;27;90163;-51
2023/05/02 06:37:48;;;;;;;0.90;0.30;;;;;;;;;;5060817;27;89858;-51
2023/05/02 06:40:17;;;;;;;0.87;0.53;;;;;;;;;;5061445;27;87080;-51
2023/05/02 06:42:45;;;;;;;0.87;0.47;;;;;;;;;;5060671;27;86925;-51
2023/05/02 06:45:13;;;;;;;0.20;0.20;;;;;;;;;;5061675;27;88252;-51
2023/05/02 06:47:42;;;;;;;3.40;0.47;;;;;;;;;;5061000;27;88914;-51
2023/05/02 06:50:11;;;;;;;0.67;0.40;;;;;;;;;;5055774;27;87086;-51
2023/05/02 06:52:39;;;;;;;1.03;0.40;;;;;;;;;;5060104;27;86278;-51
2023/05/02 06:55:09;;;;;;;0.40;0.40;;;;;;;;;;5059267;27;88022;-51
2023/05/02 06:57:38;;;;;;;1.67;0.50;;;;;;;;;;5060647;27;87651;-51
2023/05/02 07:00:07;;;;;;;4.43;0.60;;;;;;;;;;5060861;27;89469;-51
2023/05/02 07:02:35;;;;;;;0.50;0.50;;;;;;;;;;5061232;27;87232;-51
2023/05/02 07:05:03;;;;;;;1.73;0.67;;;;;;;;;;5060742;27;88082;-51
2023/05/02 07:07:32;;;;;;;4.10;0.70;;;;;;;;;;5060595;27;88892;-51
2023/05/02 07:10:00;;;;;;;0.20;0.20;;;;;;;;;;5061015;27;87062;-51
2023/05/02 07:12:30;;;;;;;2.60;0.70;;;;;;;;;;5061404;27;86895;-51
2023/05/02 07:14:59;;;;;;;0.50;0.37;;;;;;;;;;5064149;27;88277;-51
2023/05/02 07:17:27;;;;;;;2.70;0.63;;;;;;;;;;5061115;27;88809;-51
2023/05/02 07:19:56;;;;;;;1.00;0.60;;;;;;;;;;5061674;27;87096;-51
2023/05/02 07:22:25;;;;;;;0.77;0.60;;;;;;;;;;5062961;27;87148;-52
2023/05/02 07:24:58;;;;;;;0.50;0.50;;;;;;;;;;5064129;27;89927;-51
2023/05/02 07:27:26;;;;;;;0.80;0.80;;;;;;;;;;5065008;27;89893;-52
2023/05/02 07:29:56;;;;;;;0.70;0.70;;;;;;;;;;5063445;27;87046;-51
2023/05/02 07:32:25;;;;;;;0.70;0.70;;;;;;;;;;5064974;27;87028;-51
2023/05/02 07:34:55;;;;;;;1.67;0.80;;;;;;;;;;5064426;27;88146;-51
2023/05/02 07:37:23;;;;;;;2.03;0.47;;;;;;;;;;5065084;27;89063;-51
2023/05/02 07:39:51;;;;;;;2.93;0.67;;;;;;;;;;5065055;27;87886;-51
2023/05/02 07:42:20;;;;;;;0.70;0.70;;;;;;;;;;5065680;27;86219;-51
2023/05/02 07:44:48;;;;;;;1.23;0.70;;;;;;;;;;5064527;27;88255;-51
2023/05/02 07:47:17;;;;;;;1.40;0.60;;;;;;;;;;5064039;27;89054;-51
2023/05/02 07:49:46;;;;;;;2.17;0.70;;;;;;;;;;5063515;27;87988;-51
2023/05/02 07:52:14;;;;;;;0.50;0.50;;;;;;;;;;5064408;27;87120;-51
2023/05/02 07:54:42;;;;;;;0.60;0.60;;;;;;;;;;5064581;27;89090;-53
2023/05/02 07:57:11;;;;;;;0.80;0.80;;;;;;;;;;5064859;27;86978;-50
2023/05/02 07:59:39;;;;;;;0.80;0.50;;;;;;;;;;5064588;27;86882;-52
2023/05/02 08:02:07;;;;;;;30.63;6.53;;;;;;;;;;5064398;27;87061;-51
2023/05/02 08:04:37;;;;;;;53.77;11.87;;;;;;;;;;5063619;27;88166;-51
2023/05/02 08:07:05;;;;;;;46.23;12.47;;;;;;;;;;5062370;27;89041;-51
2023/05/02 08:09:34;;;;;;;37.10;12.50;;;;;;;;;;5062541;27;87015;-51
2023/05/02 08:12:02;;;;;;;57.67;12.00;;;;;;;;;;5062584;27;87530;-52
2023/05/02 08:14:30;;;;;;;33.57;11.80;;;;;;;;;;5062679;27;89088;-52
2023/05/02 08:16:59;;;;;;;34.77;10.23;;;;;;;;;;5055604;27;89905;-52
2023/05/02 08:19:27;;;;;;;38.50;11.40;;;;;;;;;;5062932;27;86985;-49
2023/05/02 08:21:57;;;;;;;26.73;9.50;;;;;;;;;;5062481;27;88415;-51
2023/05/02 08:24:25;;;;;;;20.53;7.90;;;;;;;;;;5063449;27;89187;-51
2023/05/02 08:26:54;;;;;;;27.00;7.10;;;;;;;;;;5050797;27;87837;-52
2023/05/02 08:29:22;;;;;;;21.40;7.17;;;;;;;;;;5063562;27;86824;-53
2023/05/02 08:31:51;;;;;;;28.63;10.07;;;;;;;;;;5061726;27;87250;-52
2023/05/02 08:34:19;;;;;;;30.63;9.47;;;;;;;;;;5061205;27;88768;-52
2023/05/02 08:36:47;;;;;;;29.27;9.03;;;;;;;;;;5063078;27;89024;-52
2023/05/02 08:39:17;;;;;;;23.90;7.43;;;;;;;;;;5062613;27;87881;-52
2023/05/02 08:41:45;;;;;;;13.90;4.90;;;;;;;;;;5062788;27;87150;-52
2023/05/02 08:44:14;;;;;;;16.30;5.03;;;;;;;;;;5063032;27;88935;-52
2023/05/02 08:46:42;;;;;;;15.67;4.30;;;;;;;;;;5049007;27;87784;-52
2023/05/02 08:49:11;;;;;;;8.20;3.37;;;;;;;;;;5062053;27;88167;-52
2023/05/02 08:51:40;;;;;;;12.13;3.50;;;;;;;;;;5061467;27;86983;-53
2023/05/02 08:54:10;;;;;;;6.67;2.27;;;;;;;;;;5062313;27;89193;-53
2023/05/02 08:56:41;;;;;;;7.33;3.87;;;;;;;;;;5063752;27;87963;-52
2023/05/02 08:59:09;;;;;;;4.17;2.17;;;;;;;;;;5062913;27;87116;-52
2023/05/02 09:01:37;;;;;;;5.93;2.27;;;;;;;;;;5063649;27;86958;-52
2023/05/02 09:04:06;;;;;;;3.43;2.03;;;;;;;;;;5066104;27;90237;-52
2023/05/02 09:06:35;;;;;;;5.40;2.53;;;;;;;;;;5072162;27;87620;-52
2023/05/02 09:09:03;;;;;;;6.63;2.37;;;;;;;;;;5063557;27;86879;-52
2023/05/02 09:11:31;;;;;;;4.17;1.57;;;;;;;;;;5062662;27;87070;-52
2023/05/02 09:14:03;;;;;;;4.80;1.87;;;;;;;;;;5061773;27;89102;-52
2023/05/02 09:16:32;;;;;;;3.07;1.47;;;;;;;;;;5063368;27;88322;-52
2023/05/02 09:19:00;;;;;;;3.07;1.90;;;;;;;;;;5067689;27;87146;-52
2023/05/02 09:21:35;;;;;;;2.77;1.30;;;;;;;;;;5063278;27;86245;-53
2023/05/02 09:24:17;;;;;;;1.60;0.80;;;;;;;;;;5048662;27;87227;-53
2023/05/02 09:26:55;;;;;;;1.47;0.60;;;;;;;;;;5057609;27;89411;-53
2023/05/02 09:29:25;;;;;;;1.20;0.97;;;;;;;;;;5059655;27;88014;-53
2023/05/02 09:31:53;;;;;;;4.80;0.93;;;;;;;;;;5064066;27;87056;-53
2023/05/02 09:34:24;;;;;;;2.00;0.90;;;;;;;;;;5063088;27;89107;-53
2023/05/02 09:36:52;;;;;;;2.73;1.30;;;;;;;;;;5062290;27;87774;-53
2023/05/02 09:39:22;;;;;;;4.27;1.00;;;;;;;;;;5063760;27;87023;-53
2023/05/02 09:41:53;;;;;;;1.77;1.07;;;;;;;;;;5063552;27;87146;-53
2023/05/02 09:44:22;;;;;;;0.87;0.80;;;;;;;;;;5062656;27;88258;-53
2023/05/02 09:46:52;;;;;;;1.17;0.80;;;;;;;;;;5063443;27;88776;-53
2023/05/02 09:49:26;;;;;;;1.33;0.57;;;;;;;;;;5062561;27;86909;-53
2023/05/02 09:51:54;;;;;;;0.70;0.70;;;;;;;;;;5062305;27;86946;-53
2023/05/02 09:54:36;;;;;;;1.30;1.03;;;;;;;;;;5062300;27;89042;-53
2023/05/02 09:57:05;;;;;;;2.83;1.03;;;;;;;;;;5061903;27;89752;-53
2023/05/02 09:59:34;;;;;;;1.77;0.63;;;;;;;;;;5063030;27;86920;-54
2023/05/02 10:02:06;;;;;;;3.40;0.83;;;;;;;;;;5058563;27;88770;-53
2023/05/02 10:04:34;;;;;;;0.67;0.60;;;;;;;;;;5049532;27;89078;-53
2023/05/02 10:07:05;;;;;;;3.83;0.80;;;;;;;;;;5060440;27;87743;-53
2023/05/02 10:09:33;;;;;;;3.60;1.13;;;;;;;;;;5055542;27;87086;-53
2023/05/02 10:12:03;;;;;;;0.70;0.70;;;;;;;;;;5061675;27;86308;-54
2023/05/02 10:14:32;;;;;;;1.90;0.77;;;;;;;;;;5054903;27;88278;-53
2023/05/02 10:17:01;;;;;;;3.17;1.37;;;;;;;;;;5061622;27;88895;-53
2023/05/02 10:19:32;;;;;;;0.90;0.83;;;;;;;;;;5061099;27;87940;-53
2023/05/02 10:22:01;;;;;;;2.37;0.93;;;;;;;;;;5061312;27;87356;-53
2023/05/02 10:24:29;;;;;;;1.13;0.87;;;;;;;;;;5059683;27;88080;-53
2023/05/02 10:26:59;;;;;;;1.47;0.60;;;;;;;;;;5060905;27;87070;-53
2023/05/02 10:29:28;;;;;;;0.80;0.80;;;;;;;;;;5061060;27;87226;-53
2023/05/02 10:31:57;;;;;;;2.57;0.70;;;;;;;;;;5062888;27;87029;-53
2023/05/02 10:34:25;;;;;;;1.93;1.20;;;;;;;;;;5062354;27;88124;-53
2023/05/02 10:37:00;;;;;;;1.43;0.70;;;;;;;;;;5061781;27;88681;-53
2023/05/02 10:39:28;;;;;;;3.90;0.73;;;;;;;;;;5062860;27;87133;-53
2023/05/02 10:41:57;;;;;;;0.40;0.40;;;;;;;;;;5062724;27;86898;-53
2023/05/02 10:44:33;;;;;;;0.60;0.60;;;;;;;;;;5062014;27;89111;-53
2023/05/02 10:47:01;;;;;;;0.50;0.50;;;;;;;;;;5062221;27;88749;-53
2023/05/02 10:49:30;;;;;;;1.73;0.60;;;;;;;;;;5062268;27;87420;-53
2023/05/02 10:51:59;;;;;;;0.97;0.83;;;;;;;;;;5062657;27;86838;-54
2023/05/02 10:54:28;;;;;;;0.60;0.60;;;;;;;;;;5061918;27;88302;-54
2023/05/02 10:57:06;;;;;;;2.87;0.70;;;;;;;;;;5061171;27;87810;-53
2023/05/02 10:59:35;;;;;;;2.33;0.73;;;;;;;;;;5062577;27;86896;-54
2023/05/02 11:02:03;;;;;;;0.83;0.70;;;;;;;;;;5062851;27;86303;-54
2023/05/02 11:05:07;;;;;;;3.70;0.73;;;;;;;;;;5062252;27;88069;-54
2023/05/02 11:07:37;;;;;;;0.83;0.63;;;;;;;;;;5039322;28;88405;-54
2023/05/02 11:10:24;;;;;;;0.70;0.70;;;;;;;;;;5039159;28;88227;-54
2023/05/02 11:12:52;;;;;;;0.50;0.50;;;;;;;;;;5052553;27;87640;-54
2023/05/02 11:15:39;;;;;;;0.57;0.57;;;;;;;;;;5061757;27;88236;-54
2023/05/02 11:18:08;;;;;;;0.40;0.37;;;;;;;;;;5061997;27;87643;-53
2023/05/02 11:20:38;;;;;;;1.53;0.53;;;;;;;;;;5062255;27;86942;-54
2023/05/02 11:23:26;;;;;;;1.50;0.63;;;;;;;;;;5062109;27;86910;-54
2023/05/02 11:25:55;;;;;;;0.40;0.40;;;;;;;;;;5061405;27;89255;-53
2023/05/02 11:28:43;;;;;;;0.80;0.40;;;;;;;;;;5062274;27;87666;-53
2023/05/02 11:31:26;;;;;;;5.30;0.60;;;;;;;;;;5062120;27;87008;-54
2023/05/02 11:33:57;;;;;;;0.93;0.77;;;;;;;;;;5062164;27;87092;-53
2023/05/02 11:36:32;;;;;;;0.93;0.60;;;;;;;;;;5061011;27;90262;-53
2023/05/02 11:39:02;;;;;;;0.67;0.47;;;;;;;;;;5061722;27;88663;-54
2023/05/02 11:41:39;;;;;;;2.23;0.70;;;;;;;;;;5061791;27;86983;-54
2023/05/02 11:44:08;;;;;;;1.63;0.80;;;;;;;;;;5062144;27;87096;-53
2023/05/02 11:46:37;;;;;;;2.30;0.47;;;;;;;;;;5061730;27;89068;-53
2023/05/02 11:49:06;;;;;;;0.50;0.47;;;;;;;;;;5061552;27;88916;-53
2023/05/02 11:51:37;;;;;;;0.40;0.40;;;;;;;;;;5061887;27;86749;-53
2023/05/02 11:54:07;;;;;;;1.60;0.90;;;;;;;;;;5061892;27;86033;-53
2023/05/02 11:56:36;;;;;;;1.47;0.53;;;;;;;;;;5061553;27;86901;-53
2023/05/02 11:59:05;;;;;;;1.23;0.70;;;;;;;;;;5061163;27;88927;-53
2023/05/02 12:01:33;;;;;;;0.93;0.67;;;;;;;;;;5061054;27;87986;-53
2023/05/02 12:04:02;;;;;;;0.60;0.60;;;;;;;;;;5061470;27;87038;-53
2023/05/02 12:06:31;;;;;;;1.60;0.67;;;;;;;;;;5060934;27;88197;-54
2023/05/02 12:09:10;;;;;;;0.50;0.50;;;;;;;;;;5063106;27;88778;-53
2023/05/02 12:11:38;;;;;;;0.40;0.40;;;;;;;;;;5064690;27;87147;-52
2023/05/02 12:14:06;;;;;;;0.53;0.40;;;;;;;;;;5064564;27;87033;-52
2023/05/02 12:16:35;;;;;;;0.97;0.87;;;;;;;;;;5064507;27;87180;-53
2023/05/02 12:19:03;;;;;;;0.83;0.40;;;;;;;;;;5064937;27;88979;-54
2023/05/02 12:21:32;;;;;;;0.93;0.50;;;;;;;;;;5064683;27;86916;-51
2023/05/02 12:24:01;;;;;;;1.63;0.57;;;;;;;;;;5064051;27;86986;-53
2023/05/02 12:26:32;;;;;;;0.40;0.40;;;;;;;;;;5063315;27;89247;-51
2023/05/02 12:29:01;;;;;;;2.90;0.83;;;;;;;;;;5064056;27;88706;-52
2023/05/02 12:31:30;;;;;;;0.33;0.33;;;;;;;;;;5064562;27;87020;-52
2023/05/02 12:34:00;;;;;;;0.50;0.50;;;;;;;;;;5064736;27;87036;-52
2023/05/02 12:36:28;;;;;;;0.93;0.83;;;;;;;;;;5063687;27;88038;-52
2023/05/02 12:38:58;;;;;;;2.20;0.70;;;;;;;;;;5063959;27;89020;-52
2023/05/02 12:41:35;;;;;;;0.50;0.50;;;;;;;;;;5063932;27;87043;-52
2023/05/02 12:44:03;;;;;;;0.67;0.50;;;;;;;;;;5064693;27;86170;-52
2023/05/02 12:46:32;;;;;;;1.33;0.60;;;;;;;;;;5063867;27;89355;-52
2023/05/02 12:49:04;;;;;;;0.90;0.47;;;;;;;;;;5063767;27;87060;-52
2023/05/02 12:51:33;;;;;;;3.03;0.70;;;;;;;;;;5063566;27;88065;-52
2023/05/02 12:54:01;;;;;;;0.47;0.47;;;;;;;;;;5064036;27;87113;-52
2023/05/02 12:56:31;;;;;;;0.40;0.40;;;;;;;;;;5063952;27;88172;-52
2023/05/02 12:59:04;;;;;;;0.50;0.50;;;;;;;;;;5063918;27;88855;-52
2023/05/02 13:01:33;;;;;;;0.97;0.53;;;;;;;;;;5063886;27;87095;-52
2023/05/02 13:04:02;;;;;;;0.70;0.70;;;;;;;;;;5064156;27;87630;-53
2023/05/02 13:06:31;;;;;;;0.80;0.80;;;;;;;;;;5063292;27;89280;-52
2023/05/02 13:08:59;;;;;;;0.90;0.70;;;;;;;;;;5064021;27;88619;-53
2023/05/02 13:11:28;;;;;;;1.70;0.83;;;;;;;;;;5064240;27;86789;-52
2023/05/02 13:13:58;;;;;;;1.37;0.77;;;;;;;;;;5063988;27;87053;-52
2023/05/02 13:16:29;;;;;;;0.50;0.50;;;;;;;;;;5062801;27;89210;-52
2023/05/02 13:18:57;;;;;;;1.33;0.77;;;;;;;;;;5063004;27;88690;-52
2023/05/02 13:21:26;;;;;;;0.50;0.47;;;;;;;;;;5063480;27;87125;-52
2023/05/02 13:23:54;;;;;;;0.53;0.53;;;;;;;;;;5063677;27;86945;-53
2023/05/02 13:26:22;;;;;;;0.93;0.50;;;;;;;;;;5063081;27;89220;-52
2023/05/02 13:28:51;;;;;;;0.53;0.53;;;;;;;;;;5062990;27;89066;-52
2023/05/02 13:31:19;;;;;;;0.40;0.40;;;;;;;;;;5063592;27;87033;-52
2023/05/02 13:33:49;;;;;;;0.40;0.40;;;;;;;;;;5063233;27;86262;-52
2023/05/02 13:36:17;;;;;;;1.00;0.73;;;;;;;;;;5062351;27;89144;-52
2023/05/02 13:38:46;;;;;;;0.40;0.40;;;;;;;;;;5062996;27;89108;-52
2023/05/02 13:41:14;;;;;;;1.10;0.60;;;;;;;;;;5062595;27;87965;-52
2023/05/02 13:43:42;;;;;;;0.70;0.60;;;;;;;;;;5063372;27;87017;-52
2023/05/02 13:46:11;;;;;;;1.10;1.00;;;;;;;;;;5063002;27;89105;-52
2023/05/02 13:48:39;;;;;;;1.57;0.87;;;;;;;;;;5062902;27;88982;-52
2023/05/02 13:51:09;;;;;;;2.93;1.20;;;;;;;;;;5061697;27;87022;-53
2023/05/02 13:53:38;;;;;;;1.47;1.20;;;;;;;;;;5060981;27;87266;-52
2023/05/02 13:56:06;;;;;;;1.20;0.90;;;;;;;;;;5061986;27;88898;-52
2023/05/02 13:58:34;;;;;;;2.80;0.87;;;;;;;;;;5063031;27;87952;-53
2023/05/02 14:01:03;;;;;;;0.93;0.93;;;;;;;;;;5062121;27;87036;-52
2023/05/02 14:03:31;;;;;;;6.53;0.90;;;;;;;;;;5061338;27;88875;-52
2023/05/02 14:06:00;;;;;;;2.67;0.90;;;;;;;;;;5060755;27;89013;-52
2023/05/02 14:08:29;;;;;;;0.97;0.97;;;;;;;;;;5062541;27;89753;-52
2023/05/02 14:10:58;;;;;;;1.10;1.00;;;;;;;;;;5057557;27;86988;-51
2023/05/02 14:13:26;;;;;;;1.07;0.70;;;;;;;;;;5062455;27;86980;-52
2023/05/02 14:15:54;;;;;;;0.93;0.77;;;;;;;;;;5062147;27;89342;-52
2023/05/02 14:18:23;;;;;;;0.60;0.60;;;;;;;;;;5059337;27;88769;-52
2023/05/02 14:20:51;;;;;;;1.50;0.90;;;;;;;;;;5074550;27;87020;-52
2023/05/02 14:23:19;;;;;;;2.60;0.63;;;;;;;;;;5062887;27;86260;-53
2023/05/02 14:25:49;;;;;;;0.83;0.83;;;;;;;;;;5062139;27;89292;-52
2023/05/02 14:28:17;;;;;;;2.53;0.90;;;;;;;;;;5060951;27;87933;-52
2023/05/02 14:30:46;;;;;;;1.37;0.60;;;;;;;;;;5061810;27;88037;-51
2023/05/02 14:33:14;;;;;;;0.67;0.63;;;;;;;;;;5061566;27;87105;-52
2023/05/02 14:35:42;;;;;;;0.87;0.73;;;;;;;;;;5060239;27;89113;-52
2023/05/02 14:38:11;;;;;;;3.23;0.80;;;;;;;;;;5061931;27;89074;-52
2023/05/02 14:40:39;;;;;;;1.00;1.00;;;;;;;;;;5062407;27;87981;-52
2023/05/02 14:43:10;;;;;;;2.60;1.03;;;;;;;;;;5062248;27;86977;-52
2023/05/02 14:45:40;;;;;;;1.27;0.60;;;;;;;;;;5061643;27;89179;-53
2023/05/02 14:48:10;;;;;;;1.77;1.10;;;;;;;;;;5061614;27;89859;-52
2023/05/02 14:50:38;;;;;;;1.73;0.90;;;;;;;;;;5062371;27;86998;-52
2023/05/02 14:53:07;;;;;;;0.90;0.90;;;;;;;;;;5062087;27;87083;-51
2023/05/02 14:55:37;;;;;;;2.07;0.90;;;;;;;;;;5061555;27;90136;-51